createdAt,value
2022-12-03T00:00:11.840Z,20.12
2022-12-03T00:02:41.022Z,20.27
2022-12-03T00:05:09.120Z,18.48
2022-12-03T00:07:36.607Z,19.37
2022-12-03T00:10:05.145Z,18.75
2022-12-03T00:12:32.531Z,19.27
2022-12-03T00:14:59.920Z,19.20
2022-12-03T00:17:27.702Z,18.67
2022-12-03T00:19:54.997Z,19.48
2022-12-03T00:22:22.364Z,18.35
2022-12-03T00:24:50.049Z,20.37
2022-12-03T00:27:17.501Z,18.95
2022-12-03T00:29:45.054Z,19.52
2022-12-03T00:32:14.023Z,19.30
2022-12-03T00:34:41.379Z,19.77
2022-12-03T00:37:08.675Z,20.23
2022-12-03T00:39:36.260Z,19.50
2022-12-03T00:42:03.749Z,19.75
2022-12-03T00:44:31.036Z,20.45
2022-12-03T00:46:58.728Z,21.05
2022-12-03T00:49:26.103Z,19.20
2022-12-03T00:51:53.423Z,20.40
2022-12-03T00:54:21.035Z,20.33
2022-12-03T00:56:48.350Z,21.45
2022-12-03T00:59:15.626Z,20.92
2022-12-03T01:01:43.356Z,20.33
2022-12-03T01:04:10.776Z,21.37
2022-12-03T01:09:06.134Z,20.77
2022-12-03T01:11:39.038Z,19.48
2022-12-03T01:14:11.077Z,20.70
2022-12-03T01:16:38.665Z,20.42
2022-12-03T01:19:06.666Z,21.15
2022-12-03T01:21:34.401Z,19.73
2022-12-03T01:24:01.893Z,20.05
2022-12-03T01:26:29.222Z,21.05
2022-12-03T01:28:56.772Z,20.48
2022-12-03T01:31:42.781Z,21.27
2022-12-03T01:34:10.399Z,20.23
2022-12-03T01:36:37.709Z,19.33
2022-12-03T01:39:05.247Z,20.37
2022-12-03T01:41:33.371Z,21.48
2022-12-03T01:44:01.473Z,21.98
2022-12-03T01:46:35.768Z,21.20
2022-12-03T01:49:03.550Z,21.12
2022-12-03T01:51:30.935Z,20.92
2022-12-03T01:53:58.742Z,20.83
2022-12-03T01:56:26.382Z,19.62
2022-12-03T01:58:53.734Z,20.35
2022-12-03T02:01:21.214Z,21.37
2022-12-03T02:03:48.913Z,20.37
2022-12-03T02:06:21.342Z,20.73
2022-12-03T02:08:49.069Z,20.90
2022-12-03T02:11:25.993Z,21.87
2022-12-03T02:13:55.910Z,20.80
2022-12-03T02:16:24.386Z,22.35
2022-12-03T02:18:51.862Z,22.73
2022-12-03T02:22:01.284Z,20.90
2022-12-03T02:24:59.791Z,21.15
2022-12-03T02:27:28.462Z,20.00
2022-12-03T02:29:56.076Z,21.33
2022-12-03T02:32:23.600Z,23.12
2022-12-03T02:34:52.158Z,21.65
2022-12-03T02:37:29.037Z,22.27
2022-12-03T02:39:59.077Z,21.20
2022-12-03T02:42:36.067Z,21.73
2022-12-03T02:45:27.737Z,22.75
2022-12-03T02:48:08.735Z,21.00
2022-12-03T02:50:39.144Z,20.95
2022-12-03T02:53:09.558Z,22.08
2022-12-03T02:55:37.626Z,21.17
2022-12-03T02:58:05.581Z,20.52
2022-12-03T03:00:34.225Z,22.30
2022-12-03T03:03:02.933Z,22.40
2022-12-03T03:05:30.669Z,21.52
2022-12-03T03:07:59.598Z,21.37
2022-12-03T03:10:27.335Z,20.88
2022-12-03T03:12:55.369Z,21.27
2022-12-03T03:15:23.756Z,21.48
2022-12-03T03:17:51.699Z,21.08
2022-12-03T03:20:19.487Z,22.27
2022-12-03T03:22:47.142Z,20.40
2022-12-03T03:25:17.616Z,22.83
2022-12-03T03:27:45.481Z,21.05
2022-12-03T03:30:13.817Z,21.08
2022-12-03T03:32:41.789Z,20.52
2022-12-03T03:35:10.005Z,22.20
2022-12-03T03:37:38.329Z,22.37
2022-12-03T03:40:06.793Z,21.50
2022-12-03T03:42:34.517Z,21.15
2022-12-03T03:45:02.191Z,20.80
2022-12-03T03:47:29.474Z,21.50
2022-12-03T03:49:56.880Z,22.35
2022-12-03T03:52:24.713Z,21.12
2022-12-03T03:54:52.488Z,21.40
2022-12-03T03:57:20.322Z,21.20
2022-12-03T03:59:47.938Z,22.48
2022-12-03T04:02:20.295Z,20.85
2022-12-03T04:04:48.685Z,21.48
2022-12-03T04:07:16.377Z,21.45
2022-12-03T04:09:44.006Z,22.58
2022-12-03T04:12:30.687Z,21.48
2022-12-03T04:14:58.023Z,21.45
2022-12-03T04:17:26.019Z,22.52
2022-12-03T04:19:53.373Z,21.60
2022-12-03T04:22:39.473Z,20.40
2022-12-03T04:25:27.526Z,22.10
2022-12-03T04:28:13.427Z,22.25
2022-12-03T04:30:41.035Z,21.40
2022-12-03T04:33:27.265Z,21.42
2022-12-03T04:35:54.968Z,22.05
2022-12-03T04:38:22.473Z,22.15
2022-12-03T04:41:01.793Z,21.27
2022-12-03T04:43:31.567Z,21.98
2022-12-03T04:45:59.504Z,20.67
2022-12-03T04:48:26.938Z,21.45
2022-12-03T04:50:54.539Z,21.55
2022-12-03T04:53:21.878Z,23.15
2022-12-03T04:55:49.172Z,22.17
2022-12-03T04:58:16.738Z,22.42
2022-12-03T05:00:44.075Z,22.90
2022-12-03T05:03:11.418Z,21.37
2022-12-03T05:05:38.986Z,22.48
2022-12-03T05:08:06.632Z,23.60
2022-12-03T05:10:34.201Z,22.62
2022-12-03T05:13:01.754Z,22.75
2022-12-03T05:15:29.079Z,22.75
2022-12-03T05:17:56.429Z,22.80
2022-12-03T05:20:43.243Z,23.92
2022-12-03T05:23:14.024Z,23.00
2022-12-03T05:25:41.904Z,22.17
2022-12-03T05:28:09.209Z,24.25
2022-12-03T05:30:36.590Z,23.42
2022-12-03T05:33:04.240Z,23.08
2022-12-03T05:35:31.639Z,25.02
2022-12-03T05:37:59.006Z,23.45
2022-12-03T05:40:26.633Z,24.27
2022-12-03T05:42:54.005Z,23.55
2022-12-03T05:45:22.858Z,23.20
2022-12-03T05:47:50.898Z,22.95
2022-12-03T05:50:18.545Z,23.00
2022-12-03T05:52:45.955Z,22.30
2022-12-03T05:55:13.666Z,22.87
2022-12-03T05:57:40.973Z,23.35
2022-12-03T06:00:12.827Z,23.73
2022-12-03T06:02:40.907Z,24.92
2022-12-03T06:05:09.927Z,22.87
2022-12-03T06:07:37.377Z,22.70
2022-12-03T06:10:06.885Z,23.40
2022-12-03T06:12:34.523Z,23.05
2022-12-03T06:15:02.057Z,22.87
2022-12-03T06:17:29.937Z,22.98
2022-12-03T06:19:57.546Z,23.77
2022-12-03T06:22:25.342Z,23.45
2022-12-03T06:24:53.098Z,24.48
2022-12-03T06:27:21.043Z,25.15
2022-12-03T06:29:48.355Z,23.92
2022-12-03T06:32:15.706Z,23.42
2022-12-03T06:34:43.346Z,23.42
2022-12-03T06:37:10.648Z,24.55
2022-12-03T06:39:38.194Z,22.55
2022-12-03T06:42:05.883Z,23.85
2022-12-03T06:44:33.241Z,23.55
2022-12-03T06:47:00.889Z,21.85
2022-12-03T06:49:28.488Z,20.30
2022-12-03T06:51:56.350Z,21.95
2022-12-03T06:54:23.713Z,21.73
2022-12-03T06:56:51.294Z,21.60
2022-12-03T06:59:18.621Z,22.23
2022-12-03T07:01:45.985Z,22.02
2022-12-03T07:04:13.671Z,22.75
2022-12-03T07:06:41.070Z,21.50
2022-12-03T07:09:08.433Z,20.98
2022-12-03T07:11:41.952Z,22.20
2022-12-03T07:14:11.138Z,23.58
2022-12-03T07:16:39.362Z,20.35
2022-12-03T07:19:07.110Z,21.35
2022-12-03T07:21:34.725Z,22.70
2022-12-03T07:24:02.328Z,23.08
2022-12-03T07:26:29.857Z,21.73
2022-12-03T07:28:58.319Z,21.30
2022-12-03T07:31:26.002Z,22.10
2022-12-03T07:33:53.369Z,22.30
2022-12-03T07:36:20.716Z,22.48
2022-12-03T07:38:48.831Z,21.90
2022-12-03T07:41:16.195Z,21.15
2022-12-03T07:43:45.147Z,22.42
2022-12-03T07:46:12.818Z,23.77
2022-12-03T07:48:40.355Z,22.13
2022-12-03T07:51:08.815Z,22.75
2022-12-03T07:53:38.167Z,22.42
2022-12-03T07:56:05.876Z,21.85
2022-12-03T07:58:33.185Z,23.85
2022-12-03T08:01:00.886Z,22.37
2022-12-03T08:03:28.626Z,23.83
2022-12-03T08:05:55.918Z,23.83
2022-12-03T08:08:23.193Z,18.48
2022-12-03T08:10:50.810Z,23.52
2022-12-03T08:13:19.195Z,23.27
2022-12-03T08:15:46.948Z,23.23
2022-12-03T08:18:17.917Z,24.15
2022-12-03T08:20:48.112Z,23.52
2022-12-03T08:23:23.735Z,22.35
2022-12-03T08:25:52.607Z,22.13
2022-12-03T08:28:25.700Z,24.40
2022-12-03T08:31:01.862Z,24.27
2022-12-03T08:33:35.288Z,22.87
2022-12-03T08:36:24.858Z,24.25
2022-12-03T08:38:55.286Z,23.90
2022-12-03T08:41:42.010Z,24.52
2022-12-03T08:44:30.550Z,23.62
2022-12-03T08:47:19.116Z,23.35
2022-12-03T08:49:58.202Z,26.12
2022-12-03T08:52:33.439Z,24.67
2022-12-03T08:55:13.034Z,25.62
2022-12-03T08:57:41.334Z,24.58
2022-12-03T09:00:19.232Z,25.37
2022-12-03T09:02:52.327Z,25.62
2022-12-03T09:05:21.188Z,27.33
2022-12-03T09:07:48.920Z,25.90
2022-12-03T09:10:16.605Z,26.52
2022-12-03T09:12:44.288Z,27.20
2022-12-03T09:15:11.678Z,25.70
2022-12-03T09:17:39.003Z,27.45
2022-12-03T09:20:07.656Z,27.25
2022-12-03T09:22:35.102Z,25.67
2022-12-03T09:25:02.389Z,24.45
2022-12-03T09:27:29.938Z,27.45
2022-12-03T09:29:57.295Z,25.92
2022-12-03T09:32:24.724Z,26.30
2022-12-03T09:34:52.754Z,26.60
2022-12-03T09:37:22.073Z,25.98
2022-12-03T09:39:49.399Z,26.95
2022-12-03T09:42:17.285Z,26.35
2022-12-03T09:44:44.670Z,25.58
2022-12-03T09:47:12.179Z,26.58
2022-12-03T09:49:40.817Z,25.40
2022-12-03T09:52:08.493Z,25.62
2022-12-03T09:54:40.532Z,24.83
2022-12-03T09:57:15.030Z,23.27
2022-12-03T09:59:42.425Z,24.05
2022-12-03T10:02:22.335Z,23.55
2022-12-03T10:04:50.068Z,23.12
2022-12-03T10:07:17.634Z,23.50
2022-12-03T10:09:45.200Z,25.92
2022-12-03T10:12:14.011Z,23.77
2022-12-03T10:14:41.856Z,24.17
2022-12-03T10:17:11.010Z,23.10
2022-12-03T10:19:39.570Z,24.37
2022-12-03T10:22:06.935Z,23.33
2022-12-03T10:24:37.927Z,24.05
2022-12-03T10:27:24.007Z,23.55
2022-12-03T10:29:58.738Z,24.55
2022-12-03T10:32:38.625Z,23.83
2022-12-03T10:35:08.500Z,23.52
2022-12-03T10:37:36.363Z,22.87
2022-12-03T10:40:11.393Z,22.08
2022-12-03T10:42:40.442Z,22.40
2022-12-03T10:45:13.638Z,22.13
2022-12-03T10:47:42.362Z,21.08
2022-12-03T10:50:17.033Z,21.90
2022-12-03T10:52:45.411Z,21.83
2022-12-03T10:55:13.962Z,21.60
2022-12-03T10:57:45.581Z,20.42
2022-12-03T11:00:18.401Z,21.62
2022-12-03T11:02:53.047Z,22.40
2022-12-03T11:05:26.747Z,20.55
2022-12-03T11:07:54.479Z,20.33
2022-12-03T11:10:22.290Z,19.58
2022-12-03T11:13:27.298Z,20.92
2022-12-03T11:15:55.248Z,19.73
2022-12-03T11:18:36.622Z,19.27
2022-12-03T11:21:12.447Z,19.05
2022-12-03T11:23:45.896Z,18.17
2022-12-03T11:26:19.546Z,17.10
2022-12-03T11:28:47.121Z,16.33
2022-12-03T11:31:46.753Z,17.00
2022-12-03T11:34:17.247Z,17.08
2022-12-03T11:37:09.488Z,17.05
2022-12-03T11:39:52.449Z,16.58
2022-12-03T11:42:26.419Z,15.95
2022-12-03T11:45:02.962Z,16.20
2022-12-03T11:47:46.203Z,16.12
2022-12-03T11:50:39.612Z,16.58
2022-12-03T11:53:07.759Z,16.90
2022-12-03T11:55:40.252Z,17.20
2022-12-03T11:58:38.271Z,16.67
2022-12-03T12:01:07.308Z,17.55
2022-12-03T12:03:49.556Z,16.92
2022-12-03T12:06:19.529Z,16.70
2022-12-03T12:08:57.274Z,16.20
2022-12-03T12:11:28.673Z,16.80
2022-12-03T12:14:04.069Z,15.63
2022-12-03T12:16:47.598Z,16.50
2022-12-03T12:19:36.450Z,17.67
2022-12-03T12:22:24.928Z,17.62
2022-12-03T12:24:52.517Z,17.12
2022-12-03T12:27:25.626Z,18.42
2022-12-03T12:29:58.484Z,16.35
2022-12-03T12:32:34.253Z,17.17
2022-12-03T12:35:25.612Z,16.80
2022-12-03T12:38:00.037Z,16.03
2022-12-03T12:40:30.337Z,17.60
2022-12-03T12:43:15.213Z,15.80
2022-12-03T12:45:44.247Z,15.48
2022-12-03T12:48:14.544Z,14.80
2022-12-03T12:50:46.972Z,15.55
2022-12-03T12:53:24.831Z,16.05
2022-12-03T12:55:58.039Z,16.45
2022-12-03T12:58:26.543Z,15.70
2022-12-03T13:00:57.987Z,16.95
2022-12-03T13:03:31.682Z,16.87
2022-12-03T13:05:59.056Z,16.05
2022-12-03T13:08:38.226Z,16.42
2022-12-03T13:11:06.249Z,16.83
2022-12-03T13:13:43.319Z,15.90
2022-12-03T13:16:16.754Z,16.80
2022-12-03T13:18:49.285Z,16.60
2022-12-03T13:21:19.959Z,16.17
2022-12-03T13:23:48.358Z,16.00
2022-12-03T13:26:36.553Z,15.73
2022-12-03T13:29:12.621Z,16.42
2022-12-03T13:31:43.865Z,16.58
2022-12-03T13:34:17.039Z,17.48
2022-12-03T13:39:20.234Z,15.27
2022-12-03T13:42:06.205Z,16.15
2022-12-03T13:44:34.385Z,17.73
2022-12-03T13:47:11.872Z,14.90
2022-12-03T13:49:39.683Z,16.05
2022-12-03T13:52:13.087Z,14.85
2022-12-03T13:54:40.796Z,16.75
2022-12-03T13:57:08.159Z,16.12
2022-12-03T13:59:35.513Z,15.40
2022-12-03T14:02:03.238Z,15.43
2022-12-03T14:04:30.830Z,16.10
2022-12-03T14:06:58.153Z,15.65
2022-12-03T14:09:25.510Z,16.45
2022-12-03T14:12:11.742Z,15.93
2022-12-03T14:14:39.164Z,14.95
2022-12-03T14:17:07.525Z,14.82
2022-12-03T14:19:34.954Z,16.02
2022-12-03T14:22:02.595Z,15.80
2022-12-03T14:24:30.191Z,15.57
2022-12-03T14:26:57.503Z,14.82
2022-12-03T14:29:24.808Z,15.95
2022-12-03T14:31:52.507Z,15.55
2022-12-03T14:34:20.213Z,15.52
2022-12-03T14:36:47.658Z,15.57
2022-12-03T14:39:15.233Z,15.85
2022-12-03T14:42:01.059Z,15.07
2022-12-03T14:44:28.631Z,15.40
2022-12-03T14:46:57.550Z,15.50
2022-12-03T14:49:25.957Z,15.25
2022-12-03T14:51:53.545Z,16.23
2022-12-03T14:54:20.916Z,15.55
2022-12-03T14:56:48.228Z,14.87
2022-12-03T14:59:15.837Z,15.85
2022-12-03T15:01:43.225Z,15.90
2022-12-03T15:04:10.627Z,14.38
2022-12-03T15:06:38.433Z,14.77
2022-12-03T15:09:05.890Z,16.35
2022-12-03T15:11:33.224Z,16.00
2022-12-03T15:14:00.870Z,16.15
2022-12-03T15:16:28.418Z,17.50
2022-12-03T15:18:55.771Z,15.45
2022-12-03T15:21:23.390Z,14.65
2022-12-03T15:23:50.775Z,15.98
2022-12-03T15:26:18.067Z,15.23
2022-12-03T15:28:48.463Z,15.13
2022-12-03T15:31:16.065Z,16.87
2022-12-03T15:33:43.430Z,16.08
2022-12-03T15:36:11.055Z,17.87
2022-12-03T15:38:38.553Z,16.73
2022-12-03T15:41:21.475Z,17.45
2022-12-03T15:43:52.708Z,17.20
2022-12-03T15:46:20.582Z,17.10
2022-12-03T15:48:48.152Z,17.02
2022-12-03T15:51:15.790Z,17.90
2022-12-03T15:53:43.086Z,16.67
2022-12-03T15:56:12.051Z,16.12
2022-12-03T15:58:40.399Z,16.37
2022-12-03T16:01:08.852Z,16.92
2022-12-03T16:03:36.864Z,17.15
2022-12-03T16:06:04.373Z,17.85
2022-12-03T16:08:31.678Z,16.30
2022-12-03T16:10:59.296Z,17.58
2022-12-03T16:13:26.767Z,16.40
2022-12-03T16:15:54.433Z,16.67
2022-12-03T16:18:22.086Z,16.50
2022-12-03T16:20:49.813Z,16.70
2022-12-03T16:23:17.097Z,16.67
2022-12-03T16:25:44.762Z,15.73
2022-12-03T16:28:12.994Z,16.15
2022-12-03T16:30:40.341Z,16.80
2022-12-03T16:33:07.946Z,17.05
2022-12-03T16:35:35.242Z,16.52
2022-12-03T16:38:02.587Z,16.87
2022-12-03T16:40:30.205Z,15.73
2022-12-03T16:42:57.591Z,17.77
2022-12-03T16:45:51.555Z,17.42
2022-12-03T16:48:19.315Z,18.33
2022-12-03T16:50:46.713Z,21.45
2022-12-03T16:53:14.652Z,21.50
2022-12-03T16:55:42.282Z,22.27
2022-12-03T16:58:09.653Z,22.27
2022-12-03T17:00:36.935Z,19.27
2022-12-03T17:03:04.638Z,18.45
2022-12-03T17:05:32.065Z,18.70
2022-12-03T17:07:59.421Z,19.12
2022-12-03T17:10:27.112Z,18.50
2022-12-03T17:13:09.377Z,17.92
2022-12-03T17:15:37.959Z,17.90
2022-12-03T17:18:05.871Z,18.20
2022-12-03T17:20:33.678Z,19.98
2022-12-03T17:23:01.388Z,18.55
2022-12-03T17:25:29.378Z,18.83
2022-12-03T17:27:57.769Z,19.25
2022-12-03T17:30:25.305Z,19.37
2022-12-03T17:32:52.682Z,18.77
2022-12-03T17:35:20.065Z,20.02
2022-12-03T17:37:47.683Z,20.08
2022-12-03T17:40:16.944Z,20.35
2022-12-03T17:42:44.294Z,20.37
2022-12-03T17:45:12.475Z,20.67
2022-12-03T17:47:39.877Z,20.27
2022-12-03T17:50:08.107Z,20.77
2022-12-03T17:52:35.720Z,20.05
2022-12-03T17:55:15.717Z,22.87
2022-12-03T18:00:13.226Z,23.02
2022-12-03T18:02:42.330Z,22.65
2022-12-03T18:05:10.067Z,23.83
2022-12-03T18:07:38.526Z,23.20
2022-12-03T18:10:07.247Z,23.70
2022-12-03T18:12:34.558Z,22.92
2022-12-03T18:15:04.093Z,23.67
2022-12-03T18:17:31.791Z,24.33
2022-12-03T18:19:59.244Z,23.73
2022-12-03T18:22:27.685Z,23.80
2022-12-03T18:24:55.584Z,22.77
2022-12-03T18:27:23.591Z,21.62
2022-12-03T18:29:50.940Z,22.00
2022-12-03T18:32:33.020Z,21.12
2022-12-03T18:35:00.319Z,22.52
2022-12-03T18:37:29.203Z,23.17
2022-12-03T18:39:57.927Z,26.95
2022-12-03T18:42:26.030Z,24.25
2022-12-03T18:44:55.367Z,23.62
2022-12-03T18:47:26.303Z,22.85
2022-12-03T18:49:54.956Z,23.45
2022-12-03T18:52:23.150Z,23.52
2022-12-03T18:54:50.582Z,23.02
2022-12-03T18:57:18.198Z,23.70
2022-12-03T18:59:45.699Z,23.23
2022-12-03T19:02:38.607Z,24.37
2022-12-03T19:05:04.561Z,23.45
2022-12-03T19:07:31.885Z,24.52
2022-12-03T19:09:59.199Z,24.05
2022-12-03T19:12:26.766Z,23.40
2022-12-03T19:14:54.110Z,24.12
2022-12-03T19:17:21.667Z,23.92
2022-12-03T19:19:49.317Z,23.17
2022-12-03T19:22:16.613Z,23.95
2022-12-03T19:24:44.078Z,24.85
2022-12-03T19:27:11.664Z,23.92
2022-12-03T19:29:39.400Z,24.50
2022-12-03T19:32:06.845Z,24.33
2022-12-03T19:34:34.516Z,23.40
2022-12-03T19:37:01.893Z,21.95
2022-12-03T19:39:29.333Z,21.75
2022-12-03T19:41:56.974Z,23.12
2022-12-03T19:44:24.370Z,24.33
2022-12-03T19:46:51.775Z,23.95
2022-12-03T19:49:21.254Z,24.92
2022-12-03T19:51:48.765Z,23.50
2022-12-03T19:54:16.757Z,27.25
2022-12-03T19:56:44.435Z,26.73
2022-12-03T19:59:12.983Z,25.48
2022-12-03T20:01:40.882Z,24.98
2022-12-03T20:04:09.107Z,24.92
2022-12-03T20:06:38.302Z,25.77
2022-12-03T20:09:18.177Z,24.80
2022-12-03T20:11:50.435Z,25.67
2022-12-03T20:14:17.912Z,25.27
2022-12-03T20:16:46.099Z,26.23
2022-12-03T20:19:15.236Z,25.27
2022-12-03T20:21:43.677Z,23.40
2022-12-03T20:24:15.092Z,25.50
2022-12-03T20:26:42.890Z,25.00
2022-12-03T20:29:10.493Z,23.10
2022-12-03T20:31:37.866Z,23.27
2022-12-03T20:34:05.499Z,23.35
2022-12-03T20:36:33.088Z,23.90
2022-12-03T20:39:02.805Z,24.20
2022-12-03T20:41:30.446Z,24.10
2022-12-03T20:43:57.737Z,23.92
2022-12-03T20:46:29.041Z,22.70
2022-12-03T20:48:57.716Z,25.00
2022-12-03T20:51:28.100Z,24.60
2022-12-03T20:53:56.326Z,24.30
2022-12-03T20:56:31.256Z,24.90
2022-12-03T20:59:04.891Z,25.62
2022-12-03T21:01:32.608Z,25.45
2022-12-03T21:04:00.232Z,24.45
2022-12-03T21:06:29.823Z,24.35
2022-12-03T21:08:58.509Z,24.67
2022-12-03T21:11:29.504Z,23.85
2022-12-03T21:13:58.156Z,23.77
2022-12-03T21:16:59.290Z,22.87
2022-12-03T21:19:18.087Z,22.95
2022-12-03T21:21:45.445Z,24.40
2022-12-03T21:24:13.524Z,24.15
2022-12-03T21:26:41.476Z,22.55
2022-12-03T21:29:08.802Z,26.50
2022-12-03T21:31:37.805Z,26.17
2022-12-03T21:34:05.511Z,26.08
2022-12-03T21:36:32.952Z,24.67
2022-12-03T21:39:00.405Z,26.08
2022-12-03T21:41:28.063Z,23.58
2022-12-03T21:43:55.419Z,23.83
2022-12-03T21:47:10.775Z,25.55
2022-12-03T21:49:10.365Z,26.23
2022-12-03T21:51:37.778Z,24.60
2022-12-03T21:54:05.184Z,25.45
2022-12-03T21:56:33.129Z,23.85
2022-12-03T21:59:00.541Z,24.05
2022-12-03T22:01:27.982Z,24.65
2022-12-03T22:03:55.739Z,23.83
2022-12-03T22:06:23.767Z,23.42
2022-12-03T22:08:51.080Z,23.70
2022-12-03T22:11:23.318Z,23.23
2022-12-03T22:13:51.287Z,24.25
2022-12-03T22:16:20.399Z,23.98
2022-12-03T22:18:48.036Z,23.25
2022-12-03T22:21:17.856Z,23.85
2022-12-03T22:23:45.752Z,23.58
2022-12-03T22:26:15.386Z,24.75
2022-12-03T22:28:43.733Z,23.58
2022-12-03T22:31:12.092Z,23.23
2022-12-03T22:33:39.724Z,23.52
2022-12-03T22:36:14.673Z,23.87
2022-12-03T22:38:45.807Z,23.62
2022-12-03T22:41:13.803Z,23.87
2022-12-03T22:43:41.145Z,25.27
2022-12-03T22:46:12.289Z,24.25
2022-12-03T22:48:41.129Z,24.00
2022-12-03T22:51:20.075Z,24.52
2022-12-03T22:53:48.367Z,23.62
2022-12-03T22:56:17.178Z,23.23
2022-12-03T22:58:44.478Z,24.02
2022-12-03T23:01:24.110Z,24.73
2022-12-03T23:03:51.872Z,23.35
2022-12-03T23:06:19.526Z,24.20
2022-12-03T23:08:47.364Z,23.23
2022-12-03T23:11:15.382Z,24.83
2022-12-03T23:13:42.899Z,24.12
2022-12-03T23:16:23.650Z,24.60
2022-12-03T23:18:52.598Z,24.52
2022-12-03T23:21:28.922Z,24.98
2022-12-03T23:24:01.589Z,23.73
2022-12-03T23:26:29.168Z,23.37
2022-12-03T23:28:56.786Z,25.50
2022-12-03T23:31:26.664Z,24.75
2022-12-03T23:33:55.416Z,24.42
2022-12-03T23:36:24.017Z,23.42
2022-12-03T23:38:51.407Z,25.20
2022-12-03T23:41:20.506Z,24.58
2022-12-03T23:43:48.283Z,22.42
2022-12-03T23:46:24.327Z,23.73
2022-12-03T23:48:52.404Z,23.25
2022-12-03T23:51:23.742Z,23.67
2022-12-03T23:53:52.970Z,23.75
2022-12-03T23:56:23.230Z,24.20
2022-12-03T23:58:50.618Z,24.60
